createdAt,value
2022-10-28T00:01:27.116Z,63.49
2022-10-28T00:03:57.862Z,63.47
2022-10-28T00:06:32.626Z,63.55
2022-10-28T00:09:01.228Z,63.48
2022-10-28T00:11:34.813Z,63.53
2022-10-28T00:14:05.218Z,63.56
2022-10-28T00:16:35.570Z,63.57
2022-10-28T00:19:05.389Z,63.59
2022-10-28T00:21:36.635Z,63.60
2022-10-28T00:24:06.535Z,63.54
2022-10-28T00:26:37.178Z,63.42
2022-10-28T00:29:19.635Z,63.40
2022-10-28T00:31:47.918Z,63.48
2022-10-28T00:34:18.658Z,63.56
2022-10-28T00:36:48.280Z,63.45
2022-10-28T00:39:24.380Z,63.39
2022-10-28T00:41:58.354Z,63.49
2022-10-28T00:44:48.644Z,63.58
2022-10-28T00:47:34.817Z,63.66
2022-10-28T00:50:11.925Z,63.67
2022-10-28T00:52:41.948Z,63.61
2022-10-28T00:55:10.029Z,63.54
2022-10-28T00:57:39.694Z,63.74
2022-10-28T01:00:08.637Z,63.93
2022-10-28T01:02:45.863Z,63.95
2022-10-28T01:05:16.736Z,64.05
2022-10-28T01:07:45.323Z,64.01
2022-10-28T01:10:15.146Z,63.99
2022-10-28T01:13:15.479Z,64.01
2022-10-28T01:15:49.570Z,63.97
2022-10-28T01:18:29.327Z,64.09
2022-10-28T01:21:00.504Z,64.08
2022-10-28T01:23:39.711Z,64.24
2022-10-28T01:26:26.299Z,64.14
2022-10-28T01:29:17.468Z,63.95
2022-10-28T01:32:01.271Z,63.86
2022-10-28T01:34:59.721Z,63.70
2022-10-28T01:37:47.993Z,63.90
2022-10-28T01:40:22.904Z,63.99
2022-10-28T01:43:05.862Z,63.89
2022-10-28T01:45:55.592Z,63.88
2022-10-28T01:48:33.890Z,63.98
2022-10-28T01:51:21.439Z,64.08
2022-10-28T01:53:54.001Z,63.96
2022-10-28T01:56:26.404Z,63.97
2022-10-28T01:58:59.503Z,63.99
2022-10-28T02:01:30.286Z,63.71
2022-10-28T02:03:59.009Z,63.69
2022-10-28T02:06:30.296Z,63.69
2022-10-28T02:09:01.466Z,63.64
2022-10-28T02:12:07.239Z,63.68
2022-10-28T02:15:04.432Z,63.36
2022-10-28T02:17:51.001Z,63.44
2022-10-28T02:20:37.475Z,63.75
2022-10-28T02:23:16.946Z,63.79
2022-10-28T02:25:55.433Z,63.76
2022-10-28T02:28:55.061Z,63.63
2022-10-28T02:31:25.818Z,63.64
2022-10-28T02:33:59.878Z,63.48
2022-10-28T02:36:30.165Z,63.45
2022-10-28T02:39:00.315Z,63.35
2022-10-28T02:41:40.121Z,63.31
2022-10-28T02:44:12.402Z,63.35
2022-10-28T02:46:45.288Z,63.66
2022-10-28T02:49:14.725Z,63.66
2022-10-28T02:52:03.703Z,63.83
2022-10-28T02:54:39.822Z,63.80
2022-10-28T02:57:15.760Z,63.96
2022-10-28T02:59:44.127Z,64.20
2022-10-28T03:02:12.049Z,64.01
2022-10-28T03:04:40.306Z,64.10
2022-10-28T03:07:08.083Z,64.15
2022-10-28T03:09:36.541Z,64.22
2022-10-28T03:12:05.158Z,64.30
2022-10-28T03:14:33.041Z,64.29
2022-10-28T03:17:01.317Z,64.26
2022-10-28T03:19:29.730Z,64.18
2022-10-28T03:21:57.569Z,64.11
2022-10-28T03:24:25.593Z,64.18
2022-10-28T03:26:53.829Z,64.23
2022-10-28T03:29:21.636Z,64.21
2022-10-28T03:31:49.746Z,64.27
2022-10-28T03:34:17.558Z,64.29
2022-10-28T03:36:45.356Z,64.14
2022-10-28T03:39:15.996Z,64.00
2022-10-28T03:41:44.120Z,63.84
2022-10-28T03:44:12.054Z,63.77
2022-10-28T03:46:39.980Z,63.63
2022-10-28T03:49:08.239Z,63.71
2022-10-28T03:51:36.048Z,63.49
2022-10-28T03:54:03.923Z,63.43
2022-10-28T03:56:31.787Z,63.50
2022-10-28T03:59:00.019Z,63.50
2022-10-28T04:01:27.999Z,63.57
2022-10-28T04:03:56.202Z,63.63
2022-10-28T04:06:24.474Z,63.66
2022-10-28T04:08:52.688Z,63.75
2022-10-28T04:11:20.897Z,63.83
2022-10-28T04:13:48.740Z,63.80
2022-10-28T04:16:16.888Z,63.91
2022-10-28T04:18:45.214Z,63.82
2022-10-28T04:21:13.750Z,63.57
2022-10-28T04:23:41.863Z,63.54
2022-10-28T04:26:10.034Z,63.63
2022-10-28T04:28:37.857Z,63.45
2022-10-28T04:31:05.818Z,63.44
2022-10-28T04:33:33.754Z,63.53
2022-10-28T04:36:01.629Z,63.58
2022-10-28T04:38:29.464Z,63.68
2022-10-28T04:40:57.711Z,63.86
2022-10-28T04:43:25.634Z,63.89
2022-10-28T04:45:53.433Z,63.89
2022-10-28T04:48:21.980Z,64.11
2022-10-28T04:50:51.310Z,64.42
2022-10-28T04:53:19.468Z,64.38
2022-10-28T04:55:47.612Z,64.29
2022-10-28T04:58:15.547Z,64.29
2022-10-28T05:00:43.771Z,64.18
2022-10-28T05:03:11.618Z,64.15
2022-10-28T05:05:40.834Z,64.12
2022-10-28T05:08:09.076Z,64.22
2022-10-28T05:10:37.301Z,64.26
2022-10-28T05:13:05.222Z,64.17
2022-10-28T05:15:33.557Z,64.14
2022-10-28T05:18:01.394Z,64.12
2022-10-28T05:20:29.515Z,64.24
2022-10-28T05:22:58.308Z,64.17
2022-10-28T05:25:26.463Z,64.02
2022-10-28T05:27:58.604Z,64.07
2022-10-28T05:30:27.409Z,64.21
2022-10-28T05:33:02.911Z,64.24
2022-10-28T05:35:31.452Z,64.22
2022-10-28T05:37:59.639Z,64.34
2022-10-28T05:40:27.459Z,64.68
2022-10-28T05:42:55.696Z,64.82
2022-10-28T05:45:24.561Z,64.88
2022-10-28T05:47:52.769Z,64.97
2022-10-28T05:50:21.767Z,64.95
2022-10-28T05:52:54.548Z,64.88
2022-10-28T05:55:25.508Z,64.80
2022-10-28T05:57:53.714Z,64.72
2022-10-28T06:00:26.680Z,64.58
2022-10-28T06:03:09.546Z,64.54
2022-10-28T06:05:39.440Z,64.55
2022-10-28T06:08:07.624Z,64.67
2022-10-28T06:10:35.456Z,64.95
2022-10-28T06:13:02.143Z,65.13
2022-10-28T06:15:30.191Z,65.12
2022-10-28T06:17:58.119Z,64.98
2022-10-28T06:20:25.955Z,65.10
2022-10-28T06:22:55.869Z,64.99
2022-10-28T06:25:25.629Z,64.99
2022-10-28T06:27:55.847Z,64.98
2022-10-28T06:30:26.048Z,65.04
2022-10-28T06:32:57.625Z,65.03
2022-10-28T06:35:25.771Z,65.13
2022-10-28T06:37:55.659Z,65.14
2022-10-28T06:40:24.569Z,65.06
2022-10-28T06:42:57.021Z,64.98
2022-10-28T06:45:26.651Z,64.96
2022-10-28T06:48:04.722Z,64.93
2022-10-28T06:50:34.556Z,65.01
2022-10-28T06:53:03.600Z,65.03
2022-10-28T06:55:31.632Z,65.23
2022-10-28T06:58:01.329Z,65.39
2022-10-28T07:00:33.766Z,65.28
2022-10-28T07:03:03.334Z,65.24
2022-10-28T07:05:31.630Z,65.11
2022-10-28T07:07:59.617Z,65.03
2022-10-28T07:10:27.532Z,65.09
2022-10-28T07:12:55.941Z,65.07
2022-10-28T07:15:24.393Z,65.27
2022-10-28T07:17:57.192Z,65.28
2022-10-28T07:20:27.721Z,64.82
2022-10-28T07:23:00.910Z,64.89
2022-10-28T07:25:30.793Z,64.95
2022-10-28T07:27:59.643Z,64.97
2022-10-28T07:30:29.146Z,65.07
2022-10-28T07:33:01.048Z,65.14
2022-10-28T07:35:29.369Z,65.24
2022-10-28T07:37:58.822Z,65.10
2022-10-28T07:40:27.808Z,65.06
2022-10-28T07:42:56.146Z,65.14
2022-10-28T07:45:24.473Z,64.80
2022-10-28T07:47:52.689Z,64.90
2022-10-28T07:50:20.857Z,64.84
2022-10-28T07:52:49.011Z,64.82
2022-10-28T07:55:16.974Z,64.87
2022-10-28T07:57:45.117Z,64.89
2022-10-28T08:00:13.720Z,64.72
2022-10-28T08:02:42.751Z,64.58
2022-10-28T08:05:10.671Z,64.45
2022-10-28T08:07:39.140Z,64.42
2022-10-28T08:10:08.064Z,64.29
2022-10-28T08:12:36.686Z,64.15
2022-10-28T08:15:05.526Z,64.21
2022-10-28T08:17:33.306Z,64.07
2022-10-28T08:20:01.504Z,64.11
2022-10-28T08:22:29.908Z,64.22
2022-10-28T08:24:57.804Z,64.11
2022-10-28T08:27:26.098Z,63.93
2022-10-28T08:29:54.788Z,63.88
2022-10-28T08:32:22.761Z,63.59
2022-10-28T08:34:50.679Z,63.46
2022-10-28T08:37:18.614Z,63.57
2022-10-28T08:39:46.495Z,63.32
2022-10-28T08:42:50.811Z,63.39
2022-10-28T08:45:30.962Z,63.34
2022-10-28T08:48:20.716Z,63.31
2022-10-28T08:50:53.335Z,63.33
2022-10-28T08:53:26.096Z,63.42
2022-10-28T08:55:59.482Z,63.31
2022-10-28T08:58:34.305Z,63.53
2022-10-28T09:01:05.727Z,63.53
2022-10-28T09:03:41.571Z,63.40
2022-10-28T09:06:11.316Z,63.30
2022-10-28T09:08:48.907Z,63.49
2022-10-28T09:11:51.242Z,63.51
2022-10-28T09:14:25.331Z,63.44
2022-10-28T09:16:59.291Z,63.42
2022-10-28T09:19:40.472Z,63.31
2022-10-28T09:22:20.764Z,63.05
2022-10-28T09:24:53.805Z,63.03
2022-10-28T09:27:37.874Z,63.00
2022-10-28T09:30:30.697Z,62.77
2022-10-28T09:33:37.536Z,62.85
2022-10-28T09:36:11.661Z,63.29
2022-10-28T09:38:40.513Z,63.47
2022-10-28T09:41:20.149Z,63.17
2022-10-28T09:43:55.576Z,62.86
2022-10-28T09:46:31.953Z,62.88
2022-10-28T09:49:06.265Z,62.66
2022-10-28T09:51:37.851Z,62.59
2022-10-28T09:54:05.858Z,62.54
2022-10-28T09:56:33.805Z,62.89
2022-10-28T09:59:03.425Z,62.79
2022-10-28T10:01:34.444Z,62.83
2022-10-28T10:04:03.569Z,62.46
2022-10-28T10:06:39.642Z,62.53
2022-10-28T10:09:18.439Z,62.32
2022-10-28T10:11:49.319Z,62.25
2022-10-28T10:14:29.884Z,62.36
2022-10-28T10:17:03.999Z,62.20
2022-10-28T10:19:57.157Z,61.89
2022-10-28T10:22:49.016Z,61.42
2022-10-28T10:25:19.944Z,61.18
2022-10-28T10:27:55.666Z,60.98
2022-10-28T10:30:28.887Z,61.09
2022-10-28T10:32:58.903Z,60.91
2022-10-28T10:35:30.847Z,60.78
2022-10-28T10:38:01.449Z,60.70
2022-10-28T10:40:50.890Z,60.79
2022-10-28T10:43:18.704Z,60.87
2022-10-28T10:46:16.698Z,60.70
2022-10-28T10:48:45.257Z,60.58
2022-10-28T10:51:23.452Z,60.27
2022-10-28T10:53:56.127Z,60.37
2022-10-28T10:56:27.537Z,60.28
2022-10-28T10:58:59.169Z,59.86
2022-10-28T11:01:33.405Z,59.80
2022-10-28T11:04:04.506Z,59.62
2022-10-28T11:06:37.317Z,59.36
2022-10-28T11:09:08.560Z,59.08
2022-10-28T11:11:38.548Z,59.02
2022-10-28T11:14:09.569Z,59.02
2022-10-28T11:16:52.057Z,58.59
2022-10-28T11:19:22.360Z,58.46
2022-10-28T11:22:14.848Z,58.83
2022-10-28T11:25:24.317Z,58.21
2022-10-28T11:28:20.364Z,58.18
2022-10-28T11:31:03.971Z,57.94
2022-10-28T11:34:02.042Z,57.68
2022-10-28T11:36:38.521Z,57.51
2022-10-28T11:39:16.190Z,57.41
2022-10-28T11:42:08.693Z,57.26
2022-10-28T11:45:01.506Z,56.96
2022-10-28T11:47:48.491Z,57.22
2022-10-28T11:50:28.558Z,56.96
2022-10-28T11:53:11.711Z,56.91
2022-10-28T11:55:47.775Z,56.68
2022-10-28T11:58:31.691Z,56.47
2022-10-28T12:01:02.678Z,56.23
2022-10-28T12:03:42.692Z,56.35
2022-10-28T12:06:36.566Z,56.42
2022-10-28T12:09:25.821Z,56.23
2022-10-28T12:12:03.983Z,56.05
2022-10-28T12:14:57.541Z,55.90
2022-10-28T12:17:44.125Z,56.08
2022-10-28T12:20:23.531Z,56.17
2022-10-28T12:22:53.287Z,55.84
2022-10-28T12:25:27.120Z,55.70
2022-10-28T12:28:02.655Z,55.40
2022-10-28T12:30:34.783Z,55.54
2022-10-28T12:33:20.940Z,55.57
2022-10-28T12:36:13.017Z,55.61
2022-10-28T12:38:48.820Z,55.63
2022-10-28T12:41:46.632Z,55.49
2022-10-28T12:44:20.433Z,55.32
2022-10-28T12:46:52.922Z,55.64
2022-10-28T12:50:02.808Z,55.76
2022-10-28T12:52:54.438Z,55.94
2022-10-28T12:55:40.355Z,55.81
2022-10-28T12:58:38.708Z,55.70
2022-10-28T13:01:15.441Z,55.33
2022-10-28T13:03:43.481Z,55.36
2022-10-28T13:06:25.584Z,55.71
2022-10-28T13:09:12.003Z,55.61
2022-10-28T13:11:58.914Z,55.41
2022-10-28T13:15:13.945Z,55.58
2022-10-28T13:18:19.821Z,55.72
2022-10-28T13:21:12.735Z,55.83
2022-10-28T13:23:48.271Z,55.98
2022-10-28T13:26:36.045Z,56.08
2022-10-28T13:29:07.805Z,56.13
2022-10-28T13:31:46.865Z,55.92
2022-10-28T13:34:18.197Z,56.14
2022-10-28T13:36:57.644Z,56.32
2022-10-28T13:39:47.330Z,56.50
2022-10-28T13:42:15.588Z,56.74
2022-10-28T13:44:50.812Z,56.88
2022-10-28T13:47:35.682Z,56.75
2022-10-28T13:50:06.851Z,56.71
2022-10-28T13:52:42.604Z,56.93
2022-10-28T13:55:42.372Z,57.00
2022-10-28T13:58:26.021Z,57.02
2022-10-28T14:00:55.207Z,57.12
2022-10-28T14:03:26.824Z,57.16
2022-10-28T14:05:59.678Z,57.23
2022-10-28T14:08:33.996Z,57.33
2022-10-28T14:11:13.033Z,57.35
2022-10-28T14:13:50.025Z,57.74
2022-10-28T14:16:26.864Z,57.96
2022-10-28T14:19:06.115Z,58.08
2022-10-28T14:21:47.947Z,58.42
2022-10-28T14:24:35.642Z,58.51
2022-10-28T14:27:10.252Z,58.56
2022-10-28T14:29:46.564Z,58.65
2022-10-28T14:32:33.075Z,58.75
2022-10-28T14:35:14.696Z,58.87
2022-10-28T14:37:58.245Z,59.04
2022-10-28T14:40:40.279Z,59.18
2022-10-28T14:43:25.138Z,59.51
2022-10-28T14:46:22.801Z,59.63
2022-10-28T14:48:59.783Z,59.76
2022-10-28T14:51:37.051Z,59.98
2022-10-28T14:54:12.613Z,60.00
2022-10-28T14:56:41.639Z,60.13
2022-10-28T14:59:30.391Z,60.41
2022-10-28T15:02:14.362Z,60.75
2022-10-28T15:04:46.691Z,61.02
2022-10-28T15:07:17.673Z,61.09
2022-10-28T15:09:53.890Z,61.19
2022-10-28T15:12:30.106Z,61.46
2022-10-28T15:14:58.547Z,61.50
2022-10-28T15:17:29.451Z,61.90
2022-10-28T15:20:00.506Z,62.13
2022-10-28T15:22:32.163Z,62.44
2022-10-28T15:25:16.178Z,62.76
2022-10-28T15:27:46.054Z,63.00
2022-10-28T15:30:32.619Z,63.11
2022-10-28T15:33:20.762Z,63.25
2022-10-28T15:35:49.092Z,63.42
2022-10-28T15:38:38.119Z,63.54
2022-10-28T15:41:41.760Z,63.58
2022-10-28T15:44:26.430Z,63.84
2022-10-28T15:46:55.882Z,64.07
2022-10-28T15:49:42.256Z,64.19
2022-10-28T15:52:16.515Z,64.27
2022-10-28T15:54:55.977Z,64.15
2022-10-28T15:57:28.207Z,64.01
2022-10-28T16:00:22.007Z,63.90
2022-10-28T16:03:05.850Z,64.02
2022-10-28T16:05:39.625Z,64.15
2022-10-28T16:08:16.051Z,64.25
2022-10-28T16:10:47.218Z,64.57
2022-10-28T16:13:26.253Z,64.86
2022-10-28T16:16:03.106Z,65.10
2022-10-28T16:18:35.303Z,65.33
2022-10-28T16:21:05.069Z,65.41
2022-10-28T16:23:42.966Z,65.53
2022-10-28T16:26:12.500Z,65.88
2022-10-28T16:28:45.008Z,66.16
2022-10-28T16:31:16.562Z,66.50
2022-10-28T16:33:45.080Z,66.92
2022-10-28T16:36:13.615Z,67.40
2022-10-28T16:38:41.380Z,67.85
2022-10-28T16:41:19.091Z,68.40
2022-10-28T16:43:47.105Z,68.95
2022-10-28T16:46:15.693Z,69.52
2022-10-28T16:48:43.596Z,69.67
2022-10-28T16:51:14.975Z,69.95
2022-10-28T16:53:47.585Z,70.43
2022-10-28T16:56:16.639Z,70.31
2022-10-28T16:58:44.640Z,70.21
2022-10-28T17:01:18.176Z,70.70
2022-10-28T17:03:46.735Z,70.52
2022-10-28T17:06:14.577Z,70.75
2022-10-28T17:09:02.033Z,70.53
2022-10-28T17:13:59.392Z,70.66
2022-10-28T17:16:27.641Z,70.64
2022-10-28T17:18:55.523Z,70.87
2022-10-28T17:21:24.021Z,70.88
2022-10-28T17:23:52.299Z,70.89
2022-10-28T17:26:20.258Z,71.07
2022-10-28T17:28:52.420Z,70.97
2022-10-28T17:31:23.987Z,71.20
2022-10-28T17:33:56.254Z,71.22
2022-10-28T17:36:24.647Z,71.38
2022-10-28T17:38:52.552Z,71.26
2022-10-28T17:41:20.509Z,71.27
2022-10-28T17:43:48.753Z,71.32
2022-10-28T17:46:17.025Z,71.24
2022-10-28T17:48:44.942Z,71.31
2022-10-28T17:51:13.111Z,71.18
2022-10-28T17:53:41.005Z,71.20
2022-10-28T17:56:09.196Z,71.21
2022-10-28T17:58:37.284Z,71.12
2022-10-28T18:01:07.501Z,71.02
2022-10-28T18:03:38.511Z,71.18
2022-10-28T18:06:10.877Z,71.50
2022-10-28T18:08:42.822Z,71.70
2022-10-28T18:11:13.262Z,71.66
2022-10-28T18:13:42.867Z,71.78
2022-10-28T18:16:16.630Z,71.73
2022-10-28T18:18:44.679Z,71.81
2022-10-28T18:21:13.583Z,71.86
2022-10-28T18:23:41.889Z,71.64
2022-10-28T18:26:14.815Z,71.60
2022-10-28T18:28:44.552Z,71.66
2022-10-28T18:31:12.431Z,71.73
2022-10-28T18:33:41.783Z,71.73
2022-10-28T18:36:21.201Z,71.74
2022-10-28T18:38:50.212Z,71.76
2022-10-28T18:41:20.386Z,71.65
2022-10-28T18:43:48.481Z,71.54
2022-10-28T18:46:17.361Z,71.31
2022-10-28T18:48:45.202Z,71.31
2022-10-28T18:51:13.870Z,71.28
2022-10-28T18:53:45.093Z,71.18
2022-10-28T18:56:20.959Z,71.24
2022-10-28T18:58:51.431Z,71.13
2022-10-28T19:01:21.366Z,71.16
2022-10-28T19:03:56.384Z,71.30
2022-10-28T19:06:26.443Z,71.12
2022-10-28T19:08:56.495Z,71.04
2022-10-28T19:11:30.234Z,70.96
2022-10-28T19:14:05.823Z,70.93
2022-10-28T19:16:36.518Z,70.83
2022-10-28T19:19:05.762Z,70.70
2022-10-28T19:21:34.182Z,70.96
2022-10-28T19:24:02.893Z,71.06
2022-10-28T19:26:32.043Z,71.15
2022-10-28T19:29:00.151Z,71.24
2022-10-28T19:31:28.637Z,71.06
2022-10-28T19:33:56.687Z,71.18
2022-10-28T19:36:27.618Z,71.26
2022-10-28T19:38:57.890Z,71.15
2022-10-28T19:41:28.259Z,71.03
2022-10-28T19:44:01.649Z,70.92
2022-10-28T19:46:34.017Z,70.98
2022-10-28T19:49:05.263Z,70.89
2022-10-28T19:51:36.218Z,70.92
2022-10-28T19:54:07.579Z,71.03
2022-10-28T19:56:36.147Z,71.04
2022-10-28T19:59:06.055Z,71.05
2022-10-28T20:01:39.336Z,71.02
2022-10-28T20:04:10.416Z,71.05
2022-10-28T20:06:41.004Z,70.80
2022-10-28T20:09:09.480Z,70.78
2022-10-28T20:11:39.472Z,70.69
2022-10-28T20:14:11.810Z,70.64
2022-10-28T20:16:43.252Z,70.42
2022-10-28T20:19:11.782Z,70.36
2022-10-28T20:21:39.946Z,70.41
2022-10-28T20:24:08.492Z,70.50
2022-10-28T20:26:38.905Z,70.36
2022-10-28T20:29:08.985Z,70.21
2022-10-28T20:31:39.207Z,70.10
2022-10-28T20:34:08.593Z,70.06
2022-10-28T20:36:38.266Z,70.08
2022-10-28T20:39:08.957Z,70.05
2022-10-28T20:41:38.704Z,70.18
2022-10-28T20:44:07.240Z,70.23
2022-10-28T20:46:36.292Z,70.28
2022-10-28T20:49:05.828Z,70.43
2022-10-28T20:51:34.046Z,70.32
2022-10-28T20:54:02.539Z,70.28
2022-10-28T20:56:35.531Z,70.27
2022-10-28T20:59:04.616Z,70.34
2022-10-28T21:01:39.136Z,70.34
2022-10-28T21:04:09.750Z,70.38
2022-10-28T21:06:39.162Z,70.39
2022-10-28T21:09:08.123Z,70.46
2022-10-28T21:11:35.934Z,70.50
2022-10-28T21:14:03.920Z,70.40
2022-10-28T21:16:32.319Z,70.28
2022-10-28T21:19:00.492Z,70.24
2022-10-28T21:21:29.761Z,70.36
2022-10-28T21:24:00.226Z,70.26
2022-10-28T21:26:28.094Z,70.20
2022-10-28T21:28:56.735Z,70.16
2022-10-28T21:31:25.652Z,70.05
2022-10-28T21:33:53.893Z,70.04
2022-10-28T21:36:22.420Z,70.27
2022-10-28T21:38:55.390Z,70.30
2022-10-28T21:41:25.115Z,70.41
2022-10-28T21:43:54.477Z,70.41
2022-10-28T21:46:24.533Z,70.34
2022-10-28T21:48:53.883Z,70.44
2022-10-28T21:51:21.778Z,70.58
2022-10-28T21:53:49.929Z,70.65
2022-10-28T21:56:20.359Z,70.60
2022-10-28T21:58:49.319Z,70.58
2022-10-28T22:01:23.877Z,70.63
2022-10-28T22:03:55.518Z,70.70
2022-10-28T22:06:24.123Z,70.68
2022-10-28T22:08:55.916Z,70.78
2022-10-28T22:11:24.590Z,70.80
2022-10-28T22:14:04.161Z,70.80
2022-10-28T22:16:34.735Z,70.82
2022-10-28T22:19:04.217Z,70.97
2022-10-28T22:21:35.305Z,71.08
2022-10-28T22:24:03.153Z,71.03
2022-10-28T22:26:32.970Z,71.10
2022-10-28T22:29:00.767Z,71.27
2022-10-28T22:31:31.814Z,71.29
2022-10-28T22:34:00.736Z,71.34
2022-10-28T22:36:30.212Z,71.16
2022-10-28T22:38:58.594Z,71.03
2022-10-28T22:41:29.026Z,70.95
2022-10-28T22:43:59.712Z,70.84
2022-10-28T22:46:32.273Z,70.92
2022-10-28T22:49:00.584Z,70.85
2022-10-28T22:51:28.664Z,70.80
2022-10-28T22:53:57.143Z,70.76
2022-10-28T22:56:26.490Z,70.72
2022-10-28T22:58:56.368Z,70.77
2022-10-28T23:01:26.160Z,70.77
2022-10-28T23:03:55.659Z,70.85
2022-10-28T23:06:26.085Z,70.72
2022-10-28T23:08:54.570Z,70.64
2022-10-28T23:11:23.397Z,70.74
2022-10-28T23:13:53.454Z,70.88
2022-10-28T23:16:22.980Z,71.07
2022-10-28T23:18:53.209Z,70.98
2022-10-28T23:21:25.904Z,71.08
2022-10-28T23:23:59.144Z,71.00
2022-10-28T23:26:29.237Z,70.75
2022-10-28T23:28:59.508Z,70.65
2022-10-28T23:31:28.353Z,70.71
2022-10-28T23:33:58.202Z,70.82
2022-10-28T23:36:26.577Z,70.81
2022-10-28T23:38:56.606Z,70.78
2022-10-28T23:41:24.473Z,70.71
2022-10-28T23:43:52.550Z,70.65
2022-10-28T23:46:21.588Z,70.59
2022-10-28T23:48:49.575Z,70.48
2022-10-28T23:51:19.339Z,70.28
2022-10-28T23:53:47.610Z,70.31
2022-10-28T23:56:15.367Z,70.55
2022-10-28T23:58:43.523Z,70.77
